createdAt,value
2023-03-23T00:01:09.770Z,1.15
2023-03-23T00:05:09.754Z,1.14
2023-03-23T00:09:09.693Z,1.15
2023-03-23T00:13:09.698Z,1.14
2023-03-23T00:17:09.624Z,1.12
2023-03-23T00:21:09.582Z,1.12
2023-03-23T00:25:09.585Z,1.13
2023-03-23T00:29:09.540Z,1.11
2023-03-23T00:33:09.541Z,1.12
2023-03-23T00:37:09.456Z,1.11
2023-03-23T00:41:09.418Z,1.08
2023-03-23T00:45:09.405Z,1.09
2023-03-23T00:49:09.330Z,1.09
2023-03-23T00:53:09.310Z,1.07
2023-03-23T00:57:09.287Z,1.06
2023-03-23T01:01:09.248Z,1.09
2023-03-23T01:05:09.177Z,1.08
2023-03-23T01:09:09.159Z,1.07
2023-03-23T01:13:09.137Z,1.07
2023-03-23T01:17:09.091Z,1.06
2023-03-23T01:21:09.062Z,1.06
2023-03-23T01:25:09.061Z,1.07
2023-03-23T01:29:08.998Z,1.05
2023-03-23T01:33:08.946Z,1.02
2023-03-23T01:37:08.938Z,1.06
2023-03-23T01:41:08.917Z,1.04
2023-03-23T01:45:08.884Z,1.03
2023-03-23T01:49:08.903Z,1.01
2023-03-23T01:53:09.003Z,1.04
2023-03-23T01:57:09.083Z,1.04
2023-03-23T02:01:09.212Z,1.03
2023-03-23T02:05:09.170Z,1.02
2023-03-23T02:09:10.621Z,1.02
2023-03-23T02:13:11.148Z,1.02
2023-03-23T02:17:09.319Z,1.02
2023-03-23T02:21:09.223Z,1.00
2023-03-23T02:25:09.259Z,0.99
2023-03-23T02:29:09.199Z,0.99
2023-03-23T02:33:09.121Z,0.99
2023-03-23T02:37:09.130Z,0.99
2023-03-23T02:41:09.084Z,0.99
2023-03-23T02:45:09.050Z,1.00
2023-03-23T02:49:08.973Z,0.99
2023-03-23T02:53:08.942Z,0.98
2023-03-23T02:57:08.979Z,0.97
2023-03-23T03:01:08.904Z,0.97
2023-03-23T03:05:08.824Z,0.96
2023-03-23T03:09:08.847Z,0.98
2023-03-23T03:13:08.781Z,0.97
2023-03-23T03:17:08.742Z,0.97
2023-03-23T03:21:08.664Z,0.97
2023-03-23T03:25:18.212Z,0.96
2023-03-23T03:29:09.621Z,0.98
2023-03-23T03:33:08.605Z,0.97
2023-03-23T03:37:08.590Z,0.97
2023-03-23T03:41:08.568Z,0.97
2023-03-23T03:45:08.541Z,0.97
2023-03-23T03:49:08.520Z,0.97
2023-03-23T03:53:08.469Z,0.95
2023-03-23T03:57:08.452Z,0.96
2023-03-23T04:01:08.398Z,0.94
2023-03-23T04:05:08.363Z,0.96
2023-03-23T04:09:08.494Z,0.95
2023-03-23T04:13:08.286Z,0.94
2023-03-23T04:17:08.241Z,0.94
2023-03-23T04:21:08.232Z,0.93
2023-03-23T04:25:08.162Z,0.94
2023-03-23T04:29:08.155Z,0.93
2023-03-23T04:33:08.082Z,0.94
2023-03-23T04:37:08.054Z,0.93
2023-03-23T04:41:08.185Z,0.95
2023-03-23T04:45:08.309Z,0.92
2023-03-23T04:49:08.435Z,0.93
2023-03-23T04:53:08.632Z,0.94
2023-03-23T04:57:08.778Z,0.92
2023-03-23T05:01:09.098Z,0.93
2023-03-23T05:05:08.974Z,0.91
2023-03-23T05:09:09.068Z,0.94
2023-03-23T05:13:09.293Z,0.94
2023-03-23T05:17:09.409Z,0.92
2023-03-23T05:21:09.650Z,0.93
2023-03-23T05:25:09.712Z,0.90
2023-03-23T05:29:09.821Z,0.92
2023-03-23T05:33:09.949Z,0.88
2023-03-23T05:37:11.217Z,0.84
2023-03-23T05:41:10.269Z,0.85
2023-03-23T05:45:10.433Z,0.84
2023-03-23T05:49:10.547Z,0.83
2023-03-23T05:53:12.592Z,0.82
2023-03-23T05:57:10.837Z,0.80
2023-03-23T06:01:10.981Z,0.82
2023-03-23T06:05:11.908Z,0.79
2023-03-23T06:09:10.908Z,0.81
2023-03-23T06:13:10.841Z,0.82
2023-03-23T06:17:10.935Z,0.80
2023-03-23T06:21:11.101Z,0.79
2023-03-23T06:25:12.037Z,0.80
2023-03-23T06:29:11.022Z,0.78
2023-03-23T06:33:10.988Z,0.72
2023-03-23T06:37:10.974Z,0.55
2023-03-23T06:41:11.091Z,0.53
2023-03-23T06:45:11.257Z,0.61
2023-03-23T06:49:11.359Z,0.63
2023-03-23T06:53:11.558Z,0.57
2023-03-23T06:57:11.707Z,0.54
2023-03-23T07:01:11.686Z,0.63
2023-03-23T07:05:12.132Z,0.60
2023-03-23T07:09:11.833Z,0.63
2023-03-23T07:13:11.869Z,0.55
2023-03-23T07:17:11.884Z,0.54
2023-03-23T07:21:11.871Z,0.51
2023-03-23T07:25:11.934Z,0.50
2023-03-23T07:29:12.093Z,0.51
2023-03-23T07:33:12.185Z,0.50
2023-03-23T07:37:12.331Z,0.52
2023-03-23T07:41:12.570Z,0.50
2023-03-23T07:45:12.714Z,0.50
2023-03-23T07:49:12.716Z,0.51
2023-03-23T07:53:12.642Z,0.51
2023-03-23T07:57:12.647Z,0.51
2023-03-23T08:01:12.554Z,0.50
2023-03-23T08:05:12.518Z,0.51
2023-03-23T08:09:12.540Z,0.52
2023-03-23T08:13:12.561Z,0.51
2023-03-23T08:17:12.454Z,0.50
2023-03-23T08:21:12.433Z,0.51
2023-03-23T08:25:12.345Z,0.50
2023-03-23T08:29:12.314Z,0.50
2023-03-23T08:33:12.576Z,0.50
2023-03-23T08:37:12.633Z,0.62
2023-03-23T08:41:12.317Z,0.74
2023-03-23T08:45:12.370Z,0.91
2023-03-23T08:49:12.609Z,1.08
2023-03-23T08:53:13.158Z,1.23
2023-03-23T08:57:13.121Z,1.37
2023-03-23T09:01:12.925Z,1.55
2023-03-23T09:05:12.985Z,1.76
2023-03-23T09:09:12.971Z,2.12
2023-03-23T09:13:12.938Z,2.40
2023-03-23T09:17:13.075Z,2.75
2023-03-23T09:21:18.922Z,2.78
2023-03-23T09:25:14.008Z,2.74
2023-03-23T09:29:13.006Z,2.46
2023-03-23T09:33:13.183Z,2.58
2023-03-23T09:37:13.108Z,2.39
2023-03-23T09:41:13.061Z,2.37
2023-03-23T09:45:13.049Z,2.02
2023-03-23T09:49:13.025Z,2.09
2023-03-23T09:53:12.989Z,2.10
2023-03-23T09:57:12.935Z,2.21
2023-03-23T10:01:12.889Z,2.32
2023-03-23T10:05:12.840Z,2.43
2023-03-23T10:09:12.836Z,2.40
2023-03-23T10:13:12.777Z,2.45
2023-03-23T10:17:12.785Z,2.51
2023-03-23T10:21:12.737Z,2.67
2023-03-23T10:25:12.860Z,2.71
2023-03-23T10:29:12.631Z,2.75
2023-03-23T10:33:13.161Z,2.67
2023-03-23T10:37:12.803Z,2.28
2023-03-23T10:41:13.174Z,2.75
2023-03-23T10:45:12.899Z,2.94
2023-03-23T10:49:13.048Z,3.26
2023-03-23T10:53:13.255Z,3.49
2023-03-23T10:57:13.399Z,3.77
2023-03-23T11:01:13.475Z,4.01
2023-03-23T11:05:20.002Z,1.45
2023-03-23T11:09:14.561Z,0.60
2023-03-23T11:13:13.492Z,0.34
2023-03-23T11:17:15.935Z,0.41
2023-03-23T11:21:13.458Z,0.57
2023-03-23T11:25:14.468Z,0.63
2023-03-23T11:29:13.405Z,0.48
2023-03-23T11:33:13.323Z,0.96
2023-03-23T11:37:13.306Z,1.17
2023-03-23T11:41:13.275Z,2.25
2023-03-23T11:45:13.209Z,3.69
2023-03-23T11:49:23.206Z,5.26
2023-03-23T11:53:14.143Z,6.19
2023-03-23T11:57:13.128Z,8.70
2023-03-23T12:01:13.106Z,12.85
2023-03-23T12:05:13.190Z,15.88
2023-03-23T12:09:13.405Z,16.10
2023-03-23T12:13:16.088Z,17.07
2023-03-23T12:17:14.503Z,17.02
2023-03-23T12:21:14.499Z,18.99
2023-03-23T12:25:13.432Z,18.71
2023-03-23T12:29:13.457Z,14.88
2023-03-23T12:33:13.682Z,14.92
2023-03-23T12:37:13.873Z,14.40
2023-03-23T12:41:13.962Z,13.31
2023-03-23T12:45:14.161Z,12.45
2023-03-23T12:49:14.359Z,11.28
2023-03-23T12:53:14.484Z,10.66
2023-03-23T12:57:14.691Z,10.29
2023-03-23T13:01:14.807Z,9.67
2023-03-23T13:05:14.998Z,9.16
2023-03-23T13:09:15.172Z,8.83
2023-03-23T13:13:15.292Z,8.64
2023-03-23T13:17:16.226Z,7.99
2023-03-23T13:21:15.202Z,7.61
2023-03-23T13:25:15.153Z,7.54
2023-03-23T13:29:15.182Z,7.28
2023-03-23T13:33:15.267Z,6.49
2023-03-23T13:37:15.330Z,6.44
2023-03-23T13:41:15.382Z,6.33
2023-03-23T13:45:15.458Z,6.20
2023-03-23T13:49:16.574Z,6.36
2023-03-23T13:53:15.568Z,5.62
2023-03-23T13:57:15.618Z,5.63
2023-03-23T14:01:15.672Z,5.52
2023-03-23T14:05:15.702Z,5.47
2023-03-23T14:09:15.771Z,5.55
2023-03-23T14:13:15.786Z,5.69
2023-03-23T14:17:15.847Z,5.58
2023-03-23T14:21:15.963Z,5.69
2023-03-23T14:25:15.931Z,5.56
2023-03-23T14:29:19.512Z,5.27
2023-03-23T14:33:16.219Z,4.97
2023-03-23T14:37:15.915Z,4.91
2023-03-23T14:41:15.910Z,4.84
2023-03-23T14:45:15.823Z,4.71
2023-03-23T14:49:15.841Z,4.66
2023-03-23T14:53:15.804Z,4.43
2023-03-23T14:57:15.727Z,4.58
2023-03-23T15:01:15.777Z,4.19
2023-03-23T15:05:15.697Z,3.79
2023-03-23T15:09:15.670Z,3.65
2023-03-23T15:13:15.574Z,3.65
2023-03-23T15:17:15.562Z,3.67
2023-03-23T15:21:15.556Z,4.15
2023-03-23T15:25:15.523Z,3.72
2023-03-23T15:29:15.448Z,3.73
2023-03-23T15:33:16.468Z,3.75
2023-03-23T15:37:20.465Z,3.66
2023-03-23T15:41:16.356Z,3.56
2023-03-23T15:45:15.304Z,3.34
2023-03-23T15:49:15.285Z,3.12
2023-03-23T15:53:15.269Z,3.38
2023-03-23T15:57:15.245Z,3.40
2023-03-23T16:01:15.211Z,3.28
2023-03-23T16:05:15.210Z,3.41
2023-03-23T16:09:15.233Z,3.34
2023-03-23T16:13:15.273Z,3.27
2023-03-23T16:17:15.388Z,3.13
2023-03-23T16:21:15.457Z,3.18
2023-03-23T16:25:15.564Z,3.11
2023-03-23T16:29:28.379Z,3.05
2023-03-23T16:33:16.698Z,3.07
2023-03-23T16:37:15.559Z,3.02
2023-03-23T16:41:15.592Z,3.04
2023-03-23T16:45:15.769Z,2.89
2023-03-23T16:49:15.950Z,2.96
2023-03-23T16:53:16.166Z,2.70
2023-03-23T16:57:16.417Z,2.88
2023-03-23T17:01:16.389Z,2.54
2023-03-23T17:05:16.324Z,2.83
2023-03-23T17:09:16.292Z,2.85
2023-03-23T17:13:16.275Z,2.70
2023-03-23T17:17:16.186Z,2.42
2023-03-23T17:21:16.155Z,2.81
2023-03-23T17:25:16.140Z,2.87
2023-03-23T17:29:16.075Z,2.46
2023-03-23T17:33:16.094Z,2.67
2023-03-23T17:37:16.027Z,2.81
2023-03-23T17:41:15.995Z,2.88
2023-03-23T17:45:16.015Z,2.60
2023-03-23T17:49:15.900Z,2.80
2023-03-23T17:53:15.869Z,2.73
2023-03-23T17:57:15.851Z,2.69
2023-03-23T18:01:15.839Z,2.78
2023-03-23T18:05:15.993Z,2.57
2023-03-23T18:09:15.751Z,2.66
2023-03-23T18:13:15.694Z,2.69
2023-03-23T18:17:15.784Z,2.70
2023-03-23T18:21:15.871Z,2.71
2023-03-23T18:25:15.967Z,2.73
2023-03-23T18:29:16.099Z,2.50
2023-03-23T18:33:16.698Z,3.10
2023-03-23T18:37:16.234Z,3.00
2023-03-23T18:41:16.294Z,3.05
2023-03-23T18:45:16.439Z,3.02
2023-03-23T18:49:16.597Z,3.02
2023-03-23T18:53:16.717Z,3.01
2023-03-23T18:57:16.929Z,3.09
2023-03-23T19:01:17.053Z,3.06
2023-03-23T19:05:17.190Z,3.01
2023-03-23T19:09:17.375Z,2.98
2023-03-23T19:13:17.605Z,2.92
2023-03-23T19:17:17.702Z,2.84
2023-03-23T19:21:20.480Z,2.89
2023-03-23T19:25:18.922Z,2.81
2023-03-23T19:29:25.401Z,2.77
2023-03-23T19:33:18.869Z,2.78
2023-03-23T19:37:17.833Z,2.76
2023-03-23T19:41:19.102Z,2.75
2023-03-23T19:45:17.931Z,2.70
2023-03-23T19:49:17.933Z,2.68
2023-03-23T19:53:19.171Z,2.69
2023-03-23T19:57:17.823Z,2.59
2023-03-23T20:01:17.817Z,2.59
2023-03-23T20:05:17.782Z,2.54
2023-03-23T20:09:18.498Z,2.47
2023-03-23T20:13:17.975Z,2.44
2023-03-23T20:17:17.847Z,2.40
2023-03-23T20:21:19.922Z,2.36
2023-03-23T20:25:18.043Z,2.42
2023-03-23T20:29:18.130Z,2.38
2023-03-23T20:33:18.315Z,2.36
2023-03-23T20:37:18.490Z,2.30
2023-03-23T20:41:18.566Z,2.35
2023-03-23T20:45:18.690Z,2.36
2023-03-23T20:49:18.760Z,2.36
2023-03-23T20:53:18.809Z,2.35
2023-03-23T20:57:18.842Z,2.37
2023-03-23T21:01:18.919Z,2.37
2023-03-23T21:05:18.830Z,2.34
2023-03-23T21:09:18.796Z,2.34
2023-03-23T21:13:18.810Z,2.37
2023-03-23T21:17:18.802Z,2.33
2023-03-23T21:21:18.760Z,2.36
2023-03-23T21:25:18.923Z,2.35
2023-03-23T21:29:18.786Z,2.32
2023-03-23T21:33:18.816Z,2.36
2023-03-23T21:37:18.758Z,2.36
2023-03-23T21:41:18.870Z,2.32
2023-03-23T21:45:18.814Z,2.37
2023-03-23T21:49:18.830Z,2.33
2023-03-23T21:53:18.898Z,2.25
2023-03-23T21:57:18.932Z,2.29
2023-03-23T22:01:18.975Z,2.26
2023-03-23T22:05:19.018Z,2.29
2023-03-23T22:09:19.069Z,2.29
2023-03-23T22:13:19.272Z,2.20
2023-03-23T22:17:19.263Z,2.24
2023-03-23T22:21:19.303Z,2.26
2023-03-23T22:25:19.343Z,2.23
2023-03-23T22:29:19.461Z,2.25
2023-03-23T22:33:19.549Z,2.20
2023-03-23T22:37:19.648Z,2.24
2023-03-23T22:41:19.726Z,2.21
2023-03-23T22:45:19.824Z,2.18
2023-03-23T22:49:19.958Z,2.15
2023-03-23T22:53:20.003Z,2.10
2023-03-23T22:57:20.116Z,2.11
2023-03-23T23:01:20.225Z,2.11
2023-03-23T23:05:20.386Z,2.06
2023-03-23T23:09:20.411Z,2.05
2023-03-23T23:13:20.481Z,2.06
2023-03-23T23:17:20.579Z,2.01
2023-03-23T23:21:20.676Z,2.01
2023-03-23T23:25:20.760Z,2.00
2023-03-23T23:29:20.900Z,1.95
2023-03-23T23:33:20.959Z,1.94
2023-03-23T23:37:21.057Z,1.97
2023-03-23T23:41:21.134Z,1.96
2023-03-23T23:45:21.244Z,1.93
2023-03-23T23:49:21.363Z,1.92
2023-03-23T23:53:21.497Z,1.92
2023-03-23T23:57:21.516Z,1.91
